sensor_id;sensor_type;location;lat;lon;timestamp;P1;durP1;ratioP1;P2;durP2;ratioP2
71290;SDS011;59073;51.994;4.448;2024-03-08T00:00:17;19.91;;;19.64;;
71290;SDS011;59073;51.994;4.448;2024-03-08T00:02:46;20.76;;;20.60;;
71290;SDS011;59073;51.994;4.448;2024-03-08T00:05:13;21.02;;;20.75;;
71290;SDS011;59073;51.994;4.448;2024-03-08T00:07:40;21.31;;;21.01;;
71290;SDS011;59073;51.994;4.448;2024-03-08T00:10:07;21.14;;;20.88;;
71290;SDS011;59073;51.994;4.448;2024-03-08T00:12:39;20.87;;;20.63;;
71290;SDS011;59073;51.994;4.448;2024-03-08T00:15:11;20.47;;;20.23;;
71290;SDS011;59073;51.994;4.448;2024-03-08T00:17:42;21.19;;;20.81;;
71290;SDS011;59073;51.994;4.448;2024-03-08T00:20:09;21.49;;;21.08;;
71290;SDS011;59073;51.994;4.448;2024-03-08T00:22:35;21.19;;;20.54;;
71290;SDS011;59073;51.994;4.448;2024-03-08T00:25:01;21.92;;;21.16;;
71290;SDS011;59073;51.994;4.448;2024-03-08T00:27:28;20.48;;;19.93;;
71290;SDS011;59073;51.994;4.448;2024-03-08T00:29:55;20.80;;;20.40;;
71290;SDS011;59073;51.994;4.448;2024-03-08T00:32:21;21.34;;;20.81;;
71290;SDS011;59073;51.994;4.448;2024-03-08T00:34:49;19.87;;;19.64;;
71290;SDS011;59073;51.994;4.448;2024-03-08T00:37:17;20.25;;;20.08;;
71290;SDS011;59073;51.994;4.448;2024-03-08T00:39:42;20.91;;;20.51;;
71290;SDS011;59073;51.994;4.448;2024-03-08T00:42:08;20.52;;;20.15;;
71290;SDS011;59073;51.994;4.448;2024-03-08T00:44:34;20.43;;;20.09;;
71290;SDS011;59073;51.994;4.448;2024-03-08T00:46:59;20.27;;;20.02;;
71290;SDS011;59073;51.994;4.448;2024-03-08T00:49:25;21.04;;;20.66;;
71290;SDS011;59073;51.994;4.448;2024-03-08T00:51:50;20.03;;;19.79;;
71290;SDS011;59073;51.994;4.448;2024-03-08T00:54:16;21.18;;;20.82;;
71290;SDS011;59073;51.994;4.448;2024-03-08T00:56:41;20.16;;;19.86;;
71290;SDS011;59073;51.994;4.448;2024-03-08T00:59:07;20.06;;;19.73;;
71290;SDS011;59073;51.994;4.448;2024-03-08T01:01:33;20.96;;;20.48;;
71290;SDS011;59073;51.994;4.448;2024-03-08T01:03:58;21.37;;;21.09;;
71290;SDS011;59073;51.994;4.448;2024-03-08T01:06:25;20.65;;;20.42;;
71290;SDS011;59073;51.994;4.448;2024-03-08T01:08:50;20.42;;;20.12;;
71290;SDS011;59073;51.994;4.448;2024-03-08T01:11:17;21.03;;;20.68;;
71290;SDS011;59073;51.994;4.448;2024-03-08T01:13:43;20.28;;;19.99;;
71290;SDS011;59073;51.994;4.448;2024-03-08T01:16:08;20.53;;;20.12;;
71290;SDS011;59073;51.994;4.448;2024-03-08T01:18:35;20.73;;;20.40;;
71290;SDS011;59073;51.994;4.448;2024-03-08T01:21:00;20.81;;;20.49;;
71290;SDS011;59073;51.994;4.448;2024-03-08T01:23:26;21.19;;;20.95;;
71290;SDS011;59073;51.994;4.448;2024-03-08T01:25:51;20.73;;;20.50;;
71290;SDS011;59073;51.994;4.448;2024-03-08T01:28:23;20.81;;;20.35;;
71290;SDS011;59073;51.994;4.448;2024-03-08T01:30:49;19.91;;;19.71;;
71290;SDS011;59073;51.994;4.448;2024-03-08T01:33:20;20.08;;;19.89;;
71290;SDS011;59073;51.994;4.448;2024-03-08T01:35:55;20.26;;;20.00;;
71290;SDS011;59073;51.994;4.448;2024-03-08T01:38:22;21.52;;;21.21;;
71290;SDS011;59073;51.994;4.448;2024-03-08T01:40:48;20.98;;;20.78;;
71290;SDS011;59073;51.994;4.448;2024-03-08T01:43:26;20.52;;;20.20;;
71290;SDS011;59073;51.994;4.448;2024-03-08T01:45:59;20.76;;;20.46;;
71290;SDS011;59073;51.994;4.448;2024-03-08T01:48:25;20.93;;;20.74;;
71290;SDS011;59073;51.994;4.448;2024-03-08T01:50:53;21.43;;;21.21;;
71290;SDS011;59073;51.994;4.448;2024-03-08T01:53:19;20.72;;;20.51;;
71290;SDS011;59073;51.994;4.448;2024-03-08T01:55:46;21.22;;;21.07;;
71290;SDS011;59073;51.994;4.448;2024-03-08T01:58:13;20.96;;;20.71;;
71290;SDS011;59073;51.994;4.448;2024-03-08T02:00:41;21.22;;;20.79;;
71290;SDS011;59073;51.994;4.448;2024-03-08T02:03:11;21.04;;;20.69;;
71290;SDS011;59073;51.994;4.448;2024-03-08T02:05:37;21.00;;;20.73;;
71290;SDS011;59073;51.994;4.448;2024-03-08T02:08:06;21.02;;;20.55;;
71290;SDS011;59073;51.994;4.448;2024-03-08T02:10:35;21.56;;;21.24;;
71290;SDS011;59073;51.994;4.448;2024-03-08T02:13:01;21.08;;;20.89;;
71290;SDS011;59073;51.994;4.448;2024-03-08T02:15:49;21.12;;;20.90;;
71290;SDS011;59073;51.994;4.448;2024-03-08T02:18:16;20.88;;;20.76;;
71290;SDS011;59073;51.994;4.448;2024-03-08T02:20:49;20.71;;;20.58;;
71290;SDS011;59073;51.994;4.448;2024-03-08T02:23:16;20.61;;;20.43;;
71290;SDS011;59073;51.994;4.448;2024-03-08T02:25:42;19.94;;;19.77;;
71290;SDS011;59073;51.994;4.448;2024-03-08T02:28:11;21.55;;;21.22;;
71290;SDS011;59073;51.994;4.448;2024-03-08T02:30:38;20.90;;;20.61;;
71290;SDS011;59073;51.994;4.448;2024-03-08T02:33:07;21.45;;;21.20;;
71290;SDS011;59073;51.994;4.448;2024-03-08T02:35:34;20.50;;;20.30;;
71290;SDS011;59073;51.994;4.448;2024-03-08T02:38:01;20.77;;;20.54;;
71290;SDS011;59073;51.994;4.448;2024-03-08T02:40:29;20.97;;;20.71;;
71290;SDS011;59073;51.994;4.448;2024-03-08T02:42:55;20.88;;;20.69;;
71290;SDS011;59073;51.994;4.448;2024-03-08T02:45:20;20.98;;;20.77;;
71290;SDS011;59073;51.994;4.448;2024-03-08T02:47:46;21.34;;;21.17;;
71290;SDS011;59073;51.994;4.448;2024-03-08T02:50:11;22.11;;;21.87;;
71290;SDS011;59073;51.994;4.448;2024-03-08T02:52:41;21.95;;;21.64;;
71290;SDS011;59073;51.994;4.448;2024-03-08T02:55:07;21.09;;;20.82;;
71290;SDS011;59073;51.994;4.448;2024-03-08T02:57:35;20.67;;;20.38;;
71290;SDS011;59073;51.994;4.448;2024-03-08T03:00:02;21.66;;;21.22;;
71290;SDS011;59073;51.994;4.448;2024-03-08T03:02:28;20.70;;;20.57;;
71290;SDS011;59073;51.994;4.448;2024-03-08T03:04:54;20.50;;;20.34;;
71290;SDS011;59073;51.994;4.448;2024-03-08T03:07:21;21.45;;;21.35;;
71290;SDS011;59073;51.994;4.448;2024-03-08T03:09:46;21.67;;;21.53;;
71290;SDS011;59073;51.994;4.448;2024-03-08T03:12:12;21.75;;;21.53;;
71290;SDS011;59073;51.994;4.448;2024-03-08T03:14:37;20.93;;;20.68;;
71290;SDS011;59073;51.994;4.448;2024-03-08T03:17:05;22.18;;;21.79;;
71290;SDS011;59073;51.994;4.448;2024-03-08T03:19:31;21.90;;;21.69;;
71290;SDS011;59073;51.994;4.448;2024-03-08T03:21:56;22.57;;;22.30;;
71290;SDS011;59073;51.994;4.448;2024-03-08T03:24:22;21.91;;;21.68;;
71290;SDS011;59073;51.994;4.448;2024-03-08T03:26:48;21.79;;;21.60;;
71290;SDS011;59073;51.994;4.448;2024-03-08T03:29:14;22.05;;;21.88;;
71290;SDS011;59073;51.994;4.448;2024-03-08T03:31:42;21.66;;;21.56;;
71290;SDS011;59073;51.994;4.448;2024-03-08T03:34:07;22.40;;;22.24;;
71290;SDS011;59073;51.994;4.448;2024-03-08T03:36:33;22.33;;;22.12;;
71290;SDS011;59073;51.994;4.448;2024-03-08T03:39:00;21.99;;;21.70;;
71290;SDS011;59073;51.994;4.448;2024-03-08T03:41:37;21.80;;;21.47;;
71290;SDS011;59073;51.994;4.448;2024-03-08T03:44:03;22.73;;;22.54;;
71290;SDS011;59073;51.994;4.448;2024-03-08T03:46:30;22.22;;;22.01;;
71290;SDS011;59073;51.994;4.448;2024-03-08T03:48:56;21.90;;;21.70;;
71290;SDS011;59073;51.994;4.448;2024-03-08T03:51:21;21.85;;;21.73;;
71290;SDS011;59073;51.994;4.448;2024-03-08T03:53:47;21.78;;;21.63;;
71290;SDS011;59073;51.994;4.448;2024-03-08T03:56:13;22.83;;;22.39;;
71290;SDS011;59073;51.994;4.448;2024-03-08T03:58:38;22.45;;;22.18;;
71290;SDS011;59073;51.994;4.448;2024-03-08T04:01:05;22.17;;;22.01;;
71290;SDS011;59073;51.994;4.448;2024-03-08T04:03:30;22.23;;;22.03;;
71290;SDS011;59073;51.994;4.448;2024-03-08T04:05:56;22.42;;;22.28;;
71290;SDS011;59073;51.994;4.448;2024-03-08T04:08:22;23.21;;;23.02;;
71290;SDS011;59073;51.994;4.448;2024-03-08T04:10:49;22.32;;;22.17;;
71290;SDS011;59073;51.994;4.448;2024-03-08T04:13:14;23.05;;;22.80;;
71290;SDS011;59073;51.994;4.448;2024-03-08T04:15:41;22.80;;;22.47;;
71290;SDS011;59073;51.994;4.448;2024-03-08T04:18:09;22.56;;;22.32;;
71290;SDS011;59073;51.994;4.448;2024-03-08T04:20:35;22.82;;;22.60;;
71290;SDS011;59073;51.994;4.448;2024-03-08T04:23:02;22.48;;;22.29;;
71290;SDS011;59073;51.994;4.448;2024-03-08T04:25:28;23.23;;;22.97;;
71290;SDS011;59073;51.994;4.448;2024-03-08T04:27:53;23.09;;;22.83;;
71290;SDS011;59073;51.994;4.448;2024-03-08T04:30:18;23.40;;;23.32;;
71290;SDS011;59073;51.994;4.448;2024-03-08T04:32:46;23.13;;;22.94;;
71290;SDS011;59073;51.994;4.448;2024-03-08T04:35:12;22.44;;;22.29;;
71290;SDS011;59073;51.994;4.448;2024-03-08T04:37:38;22.04;;;21.83;;
71290;SDS011;59073;51.994;4.448;2024-03-08T04:40:04;23.42;;;23.11;;
71290;SDS011;59073;51.994;4.448;2024-03-08T04:42:30;22.39;;;22.25;;
71290;SDS011;59073;51.994;4.448;2024-03-08T04:44:58;23.06;;;22.91;;
71290;SDS011;59073;51.994;4.448;2024-03-08T04:47:24;23.75;;;23.57;;
71290;SDS011;59073;51.994;4.448;2024-03-08T04:49:50;23.37;;;23.15;;
71290;SDS011;59073;51.994;4.448;2024-03-08T04:52:16;23.40;;;23.11;;
71290;SDS011;59073;51.994;4.448;2024-03-08T04:54:41;24.02;;;23.60;;
71290;SDS011;59073;51.994;4.448;2024-03-08T04:57:07;23.02;;;22.63;;
71290;SDS011;59073;51.994;4.448;2024-03-08T04:59:33;23.76;;;23.45;;
71290;SDS011;59073;51.994;4.448;2024-03-08T05:01:59;22.84;;;22.62;;
71290;SDS011;59073;51.994;4.448;2024-03-08T05:04:24;24.24;;;23.96;;
71290;SDS011;59073;51.994;4.448;2024-03-08T05:06:50;24.66;;;24.31;;
71290;SDS011;59073;51.994;4.448;2024-03-08T05:09:15;23.33;;;23.12;;
71290;SDS011;59073;51.994;4.448;2024-03-08T05:11:45;23.71;;;23.57;;
71290;SDS011;59073;51.994;4.448;2024-03-08T05:14:12;24.78;;;24.48;;
71290;SDS011;59073;51.994;4.448;2024-03-08T05:16:45;24.36;;;23.98;;
71290;SDS011;59073;51.994;4.448;2024-03-08T05:19:17;24.32;;;24.06;;
71290;SDS011;59073;51.994;4.448;2024-03-08T05:21:44;24.46;;;23.82;;
71290;SDS011;59073;51.994;4.448;2024-03-08T05:24:10;23.85;;;23.67;;
71290;SDS011;59073;51.994;4.448;2024-03-08T05:26:36;24.15;;;23.94;;
71290;SDS011;59073;51.994;4.448;2024-03-08T05:29:02;24.01;;;23.72;;
71290;SDS011;59073;51.994;4.448;2024-03-08T05:31:28;24.33;;;24.05;;
71290;SDS011;59073;51.994;4.448;2024-03-08T05:33:54;24.20;;;23.91;;
71290;SDS011;59073;51.994;4.448;2024-03-08T05:36:20;24.72;;;24.48;;
71290;SDS011;59073;51.994;4.448;2024-03-08T05:38:46;24.04;;;23.73;;
71290;SDS011;59073;51.994;4.448;2024-03-08T05:41:12;23.14;;;22.91;;
71290;SDS011;59073;51.994;4.448;2024-03-08T05:43:37;23.96;;;23.53;;
71290;SDS011;59073;51.994;4.448;2024-03-08T05:46:04;24.53;;;24.22;;
71290;SDS011;59073;51.994;4.448;2024-03-08T05:48:29;24.75;;;24.32;;
71290;SDS011;59073;51.994;4.448;2024-03-08T05:50:57;24.89;;;24.49;;
71290;SDS011;59073;51.994;4.448;2024-03-08T05:53:23;25.49;;;25.34;;
71290;SDS011;59073;51.994;4.448;2024-03-08T05:55:48;23.88;;;23.80;;
71290;SDS011;59073;51.994;4.448;2024-03-08T05:58:14;24.90;;;24.67;;
71290;SDS011;59073;51.994;4.448;2024-03-08T06:00:40;25.04;;;24.81;;
71290;SDS011;59073;51.994;4.448;2024-03-08T06:03:06;25.29;;;25.03;;
71290;SDS011;59073;51.994;4.448;2024-03-08T06:05:31;25.40;;;25.12;;
71290;SDS011;59073;51.994;4.448;2024-03-08T06:07:57;25.31;;;25.08;;
71290;SDS011;59073;51.994;4.448;2024-03-08T06:10:22;24.60;;;24.38;;
71290;SDS011;59073;51.994;4.448;2024-03-08T06:12:47;27.19;;;26.80;;
71290;SDS011;59073;51.994;4.448;2024-03-08T06:15:13;25.83;;;25.53;;
71290;SDS011;59073;51.994;4.448;2024-03-08T06:17:42;25.40;;;24.93;;
71290;SDS011;59073;51.994;4.448;2024-03-08T06:20:07;24.98;;;24.60;;
71290;SDS011;59073;51.994;4.448;2024-03-08T06:22:38;25.76;;;25.52;;
71290;SDS011;59073;51.994;4.448;2024-03-08T06:25:08;26.00;;;25.56;;
71290;SDS011;59073;51.994;4.448;2024-03-08T06:27:35;26.63;;;26.01;;
71290;SDS011;59073;51.994;4.448;2024-03-08T06:30:00;26.81;;;26.40;;
71290;SDS011;59073;51.994;4.448;2024-03-08T06:32:26;26.64;;;26.04;;
71290;SDS011;59073;51.994;4.448;2024-03-08T06:34:52;25.93;;;25.68;;
71290;SDS011;59073;51.994;4.448;2024-03-08T06:37:17;25.99;;;25.81;;
71290;SDS011;59073;51.994;4.448;2024-03-08T06:39:50;25.23;;;24.88;;
71290;SDS011;59073;51.994;4.448;2024-03-08T06:42:20;25.08;;;24.86;;
71290;SDS011;59073;51.994;4.448;2024-03-08T06:44:45;25.48;;;25.14;;
71290;SDS011;59073;51.994;4.448;2024-03-08T06:47:15;26.86;;;26.29;;
71290;SDS011;59073;51.994;4.448;2024-03-08T06:49:41;24.52;;;24.36;;
71290;SDS011;59073;51.994;4.448;2024-03-08T06:52:09;25.55;;;25.35;;
71290;SDS011;59073;51.994;4.448;2024-03-08T06:54:35;25.83;;;25.54;;
71290;SDS011;59073;51.994;4.448;2024-03-08T06:57:04;24.38;;;24.24;;
71290;SDS011;59073;51.994;4.448;2024-03-08T06:59:33;24.96;;;24.84;;
71290;SDS011;59073;51.994;4.448;2024-03-08T07:02:00;24.41;;;24.31;;
71290;SDS011;59073;51.994;4.448;2024-03-08T07:04:26;24.22;;;23.89;;
71290;SDS011;59073;51.994;4.448;2024-03-08T07:06:55;25.12;;;24.77;;
71290;SDS011;59073;51.994;4.448;2024-03-08T07:09:21;25.54;;;25.11;;
71290;SDS011;59073;51.994;4.448;2024-03-08T07:11:46;24.37;;;24.06;;
71290;SDS011;59073;51.994;4.448;2024-03-08T07:14:12;24.66;;;24.32;;
71290;SDS011;59073;51.994;4.448;2024-03-08T07:16:40;23.98;;;23.85;;
71290;SDS011;59073;51.994;4.448;2024-03-08T07:19:06;24.23;;;24.03;;
71290;SDS011;59073;51.994;4.448;2024-03-08T07:21:32;24.84;;;24.54;;
71290;SDS011;59073;51.994;4.448;2024-03-08T07:23:57;24.23;;;24.03;;
71290;SDS011;59073;51.994;4.448;2024-03-08T07:26:23;24.15;;;24.03;;
71290;SDS011;59073;51.994;4.448;2024-03-08T07:28:48;24.24;;;23.88;;
71290;SDS011;59073;51.994;4.448;2024-03-08T07:31:14;25.05;;;24.82;;
71290;SDS011;59073;51.994;4.448;2024-03-08T07:33:42;23.16;;;22.91;;
71290;SDS011;59073;51.994;4.448;2024-03-08T07:36:07;24.11;;;23.75;;
71290;SDS011;59073;51.994;4.448;2024-03-08T07:38:33;23.90;;;23.53;;
71290;SDS011;59073;51.994;4.448;2024-03-08T07:40:59;24.59;;;24.29;;
71290;SDS011;59073;51.994;4.448;2024-03-08T07:43:25;24.36;;;24.15;;
71290;SDS011;59073;51.994;4.448;2024-03-08T07:45:51;24.26;;;23.96;;
71290;SDS011;59073;51.994;4.448;2024-03-08T07:48:18;24.67;;;24.31;;
71290;SDS011;59073;51.994;4.448;2024-03-08T07:50:43;23.66;;;23.51;;
71290;SDS011;59073;51.994;4.448;2024-03-08T07:53:09;23.52;;;23.30;;
71290;SDS011;59073;51.994;4.448;2024-03-08T07:55:35;22.85;;;22.61;;
71290;SDS011;59073;51.994;4.448;2024-03-08T07:58:01;23.34;;;22.97;;
71290;SDS011;59073;51.994;4.448;2024-03-08T08:00:28;23.45;;;23.25;;
71290;SDS011;59073;51.994;4.448;2024-03-08T08:02:55;23.54;;;23.39;;
71290;SDS011;59073;51.994;4.448;2024-03-08T08:05:21;23.87;;;23.61;;
71290;SDS011;59073;51.994;4.448;2024-03-08T08:07:46;23.67;;;23.34;;
71290;SDS011;59073;51.994;4.448;2024-03-08T08:10:12;23.29;;;22.95;;
71290;SDS011;59073;51.994;4.448;2024-03-08T08:12:47;22.73;;;22.60;;
71290;SDS011;59073;51.994;4.448;2024-03-08T08:15:13;23.30;;;23.18;;
71290;SDS011;59073;51.994;4.448;2024-03-08T08:17:46;22.94;;;22.63;;
71290;SDS011;59073;51.994;4.448;2024-03-08T08:20:14;24.24;;;23.79;;
71290;SDS011;59073;51.994;4.448;2024-03-08T08:22:40;23.56;;;23.27;;
71290;SDS011;59073;51.994;4.448;2024-03-08T08:25:06;22.32;;;22.11;;
71290;SDS011;59073;51.994;4.448;2024-03-08T08:27:32;22.93;;;22.80;;
71290;SDS011;59073;51.994;4.448;2024-03-08T08:29:58;23.50;;;23.19;;
71290;SDS011;59073;51.994;4.448;2024-03-08T08:32:24;23.63;;;23.17;;
71290;SDS011;59073;51.994;4.448;2024-03-08T08:34:50;22.82;;;22.43;;
71290;SDS011;59073;51.994;4.448;2024-03-08T08:37:15;21.98;;;21.71;;
71290;SDS011;59073;51.994;4.448;2024-03-08T08:39:41;22.21;;;22.07;;
71290;SDS011;59073;51.994;4.448;2024-03-08T08:42:07;23.55;;;23.30;;
71290;SDS011;59073;51.994;4.448;2024-03-08T08:44:34;21.90;;;21.60;;
71290;SDS011;59073;51.994;4.448;2024-03-08T08:47:00;22.43;;;22.07;;
71290;SDS011;59073;51.994;4.448;2024-03-08T08:49:26;22.33;;;22.10;;
71290;SDS011;59073;51.994;4.448;2024-03-08T08:51:52;22.39;;;22.12;;
71290;SDS011;59073;51.994;4.448;2024-03-08T08:54:17;22.18;;;21.94;;
71290;SDS011;59073;51.994;4.448;2024-03-08T08:56:43;22.57;;;22.23;;
71290;SDS011;59073;51.994;4.448;2024-03-08T08:59:09;21.42;;;21.29;;
71290;SDS011;59073;51.994;4.448;2024-03-08T09:01:38;21.62;;;21.28;;
71290;SDS011;59073;51.994;4.448;2024-03-08T09:04:04;21.17;;;21.02;;
71290;SDS011;59073;51.994;4.448;2024-03-08T09:06:30;21.21;;;20.97;;
71290;SDS011;59073;51.994;4.448;2024-03-08T09:08:56;20.93;;;20.69;;
71290;SDS011;59073;51.994;4.448;2024-03-08T09:11:21;21.70;;;21.59;;
71290;SDS011;59073;51.994;4.448;2024-03-08T09:13:46;20.50;;;20.39;;
71290;SDS011;59073;51.994;4.448;2024-03-08T09:16:12;21.40;;;21.15;;
71290;SDS011;59073;51.994;4.448;2024-03-08T09:18:37;21.04;;;20.74;;
71290;SDS011;59073;51.994;4.448;2024-03-08T09:21:03;21.90;;;21.63;;
71290;SDS011;59073;51.994;4.448;2024-03-08T09:23:30;21.78;;;21.71;;
71290;SDS011;59073;51.994;4.448;2024-03-08T09:25:56;19.92;;;19.73;;
71290;SDS011;59073;51.994;4.448;2024-03-08T09:28:22;22.04;;;21.73;;
71290;SDS011;59073;51.994;4.448;2024-03-08T09:30:48;21.45;;;21.25;;
71290;SDS011;59073;51.994;4.448;2024-03-08T09:33:14;21.79;;;21.59;;
71290;SDS011;59073;51.994;4.448;2024-03-08T09:35:44;20.46;;;20.25;;
71290;SDS011;59073;51.994;4.448;2024-03-08T09:38:13;21.15;;;20.96;;
71290;SDS011;59073;51.994;4.448;2024-03-08T09:40:41;21.02;;;20.77;;
71290;SDS011;59073;51.994;4.448;2024-03-08T09:43:07;20.49;;;20.36;;
71290;SDS011;59073;51.994;4.448;2024-03-08T09:45:35;20.27;;;20.00;;
71290;SDS011;59073;51.994;4.448;2024-03-08T09:48:08;20.55;;;20.52;;
71290;SDS011;59073;51.994;4.448;2024-03-08T09:50:39;21.24;;;21.01;;
71290;SDS011;59073;51.994;4.448;2024-03-08T09:53:06;20.79;;;20.44;;
71290;SDS011;59073;51.994;4.448;2024-03-08T09:55:42;20.01;;;19.84;;
71290;SDS011;59073;51.994;4.448;2024-03-08T09:58:11;19.12;;;19.08;;
71290;SDS011;59073;51.994;4.448;2024-03-08T10:00:53;20.80;;;20.49;;
71290;SDS011;59073;51.994;4.448;2024-03-08T10:03:21;20.84;;;20.63;;
71290;SDS011;59073;51.994;4.448;2024-03-08T10:05:47;19.86;;;19.69;;
71290;SDS011;59073;51.994;4.448;2024-03-08T10:08:13;20.03;;;19.96;;
71290;SDS011;59073;51.994;4.448;2024-03-08T10:10:39;18.95;;;18.90;;
71290;SDS011;59073;51.994;4.448;2024-03-08T10:13:08;20.47;;;20.30;;
71290;SDS011;59073;51.994;4.448;2024-03-08T10:15:35;20.02;;;19.74;;
71290;SDS011;59073;51.994;4.448;2024-03-08T10:18:01;19.61;;;19.40;;
71290;SDS011;59073;51.994;4.448;2024-03-08T10:20:28;18.28;;;18.12;;
71290;SDS011;59073;51.994;4.448;2024-03-08T10:22:59;19.64;;;19.54;;
71290;SDS011;59073;51.994;4.448;2024-03-08T10:25:25;19.53;;;19.36;;
71290;SDS011;59073;51.994;4.448;2024-03-08T10:27:51;19.20;;;18.99;;
71290;SDS011;59073;51.994;4.448;2024-03-08T10:30:17;18.10;;;17.95;;
71290;SDS011;59073;51.994;4.448;2024-03-08T10:32:47;19.27;;;18.99;;
71290;SDS011;59073;51.994;4.448;2024-03-08T10:35:13;19.52;;;19.25;;
71290;SDS011;59073;51.994;4.448;2024-03-08T10:40:28;20.54;;;20.27;;
71290;SDS011;59073;51.994;4.448;2024-03-08T10:42:56;19.33;;;19.11;;
71290;SDS011;59073;51.994;4.448;2024-03-08T10:51:04;17.93;;;17.81;;
71290;SDS011;59073;51.994;4.448;2024-03-08T10:53:30;19.24;;;18.97;;
71290;SDS011;59073;51.994;4.448;2024-03-08T10:55:56;19.41;;;19.23;;
71290;SDS011;59073;51.994;4.448;2024-03-08T10:58:24;18.46;;;18.27;;
71290;SDS011;59073;51.994;4.448;2024-03-08T11:00:55;18.56;;;18.41;;
71290;SDS011;59073;51.994;4.448;2024-03-08T11:06:09;18.17;;;17.85;;
71290;SDS011;59073;51.994;4.448;2024-03-08T11:08:40;17.87;;;17.61;;
71290;SDS011;59073;51.994;4.448;2024-03-08T11:11:05;17.87;;;17.77;;
71290;SDS011;59073;51.994;4.448;2024-03-08T11:13:53;17.90;;;17.62;;
71290;SDS011;59073;51.994;4.448;2024-03-08T11:21:56;18.04;;;18.01;;
71290;SDS011;59073;51.994;4.448;2024-03-08T11:24:23;17.93;;;17.74;;
71290;SDS011;59073;51.994;4.448;2024-03-08T11:26:48;17.58;;;17.40;;
71290;SDS011;59073;51.994;4.448;2024-03-08T11:29:37;16.55;;;16.41;;
71290;SDS011;59073;51.994;4.448;2024-03-08T11:34:31;16.32;;;16.24;;
71290;SDS011;59073;51.994;4.448;2024-03-08T11:36:58;15.96;;;15.87;;
71290;SDS011;59073;51.994;4.448;2024-03-08T11:39:25;16.16;;;16.00;;
71290;SDS011;59073;51.994;4.448;2024-03-08T11:41:51;16.37;;;16.18;;
71290;SDS011;59073;51.994;4.448;2024-03-08T11:44:17;17.10;;;16.85;;
71290;SDS011;59073;51.994;4.448;2024-03-08T11:46:43;15.23;;;15.14;;
71290;SDS011;59073;51.994;4.448;2024-03-08T11:49:13;16.68;;;16.53;;
71290;SDS011;59073;51.994;4.448;2024-03-08T11:51:41;15.75;;;15.65;;
71290;SDS011;59073;51.994;4.448;2024-03-08T11:54:11;15.97;;;15.89;;
71290;SDS011;59073;51.994;4.448;2024-03-08T11:56:40;15.39;;;15.31;;
71290;SDS011;59073;51.994;4.448;2024-03-08T11:59:12;15.41;;;15.33;;
71290;SDS011;59073;51.994;4.448;2024-03-08T12:01:38;15.83;;;15.64;;
71290;SDS011;59073;51.994;4.448;2024-03-08T12:04:04;15.72;;;15.59;;
71290;SDS011;59073;51.994;4.448;2024-03-08T12:06:38;15.24;;;15.17;;
71290;SDS011;59073;51.994;4.448;2024-03-08T12:09:09;16.47;;;16.23;;
71290;SDS011;59073;51.994;4.448;2024-03-08T12:11:38;16.55;;;16.49;;
71290;SDS011;59073;51.994;4.448;2024-03-08T12:14:04;15.85;;;15.70;;
71290;SDS011;59073;51.994;4.448;2024-03-08T12:16:31;16.10;;;16.04;;
71290;SDS011;59073;51.994;4.448;2024-03-08T12:18:57;15.28;;;15.20;;
71290;SDS011;59073;51.994;4.448;2024-03-08T12:21:25;16.11;;;15.98;;
71290;SDS011;59073;51.994;4.448;2024-03-08T12:24:07;16.99;;;16.67;;
71290;SDS011;59073;51.994;4.448;2024-03-08T12:26:35;16.47;;;16.23;;
71290;SDS011;59073;51.994;4.448;2024-03-08T12:29:14;14.58;;;14.46;;
71290;SDS011;59073;51.994;4.448;2024-03-08T12:31:43;14.61;;;14.40;;
71290;SDS011;59073;51.994;4.448;2024-03-08T12:34:08;15.75;;;15.60;;
71290;SDS011;59073;51.994;4.448;2024-03-08T12:36:35;16.08;;;15.93;;
71290;SDS011;59073;51.994;4.448;2024-03-08T12:39:01;16.33;;;16.11;;
71290;SDS011;59073;51.994;4.448;2024-03-08T12:41:29;16.80;;;16.64;;
71290;SDS011;59073;51.994;4.448;2024-03-08T12:43:54;15.04;;;14.95;;
71290;SDS011;59073;51.994;4.448;2024-03-08T12:46:21;15.89;;;15.79;;
71290;SDS011;59073;51.994;4.448;2024-03-08T12:48:55;16.15;;;16.11;;
71290;SDS011;59073;51.994;4.448;2024-03-08T12:51:20;15.80;;;15.68;;
71290;SDS011;59073;51.994;4.448;2024-03-08T12:53:46;15.88;;;15.78;;
71290;SDS011;59073;51.994;4.448;2024-03-08T12:56:33;16.42;;;16.25;;
71290;SDS011;59073;51.994;4.448;2024-03-08T12:58:59;15.88;;;15.65;;
71290;SDS011;59073;51.994;4.448;2024-03-08T13:01:25;16.23;;;16.11;;
71290;SDS011;59073;51.994;4.448;2024-03-08T13:03:56;15.10;;;14.97;;
71290;SDS011;59073;51.994;4.448;2024-03-08T13:06:22;15.61;;;15.37;;
71290;SDS011;59073;51.994;4.448;2024-03-08T13:08:52;16.74;;;16.55;;
71290;SDS011;59073;51.994;4.448;2024-03-08T13:11:19;15.34;;;15.22;;
71290;SDS011;59073;51.994;4.448;2024-03-08T13:13:45;15.70;;;15.49;;
71290;SDS011;59073;51.994;4.448;2024-03-08T13:16:11;15.33;;;15.15;;
71290;SDS011;59073;51.994;4.448;2024-03-08T13:18:40;15.16;;;15.00;;
71290;SDS011;59073;51.994;4.448;2024-03-08T13:21:09;16.48;;;16.34;;
71290;SDS011;59073;51.994;4.448;2024-03-08T13:23:37;15.79;;;15.68;;
71290;SDS011;59073;51.994;4.448;2024-03-08T13:26:15;15.19;;;14.99;;
71290;SDS011;59073;51.994;4.448;2024-03-08T13:31:19;15.36;;;15.25;;
71290;SDS011;59073;51.994;4.448;2024-03-08T13:33:48;14.88;;;14.72;;
71290;SDS011;59073;51.994;4.448;2024-03-08T13:36:14;15.52;;;15.22;;
71290;SDS011;59073;51.994;4.448;2024-03-08T13:38:44;15.09;;;14.90;;
71290;SDS011;59073;51.994;4.448;2024-03-08T13:41:11;15.83;;;15.61;;
71290;SDS011;59073;51.994;4.448;2024-03-08T13:43:42;15.80;;;15.77;;
71290;SDS011;59073;51.994;4.448;2024-03-08T13:46:10;15.27;;;15.19;;
71290;SDS011;59073;51.994;4.448;2024-03-08T13:48:36;15.74;;;15.51;;
71290;SDS011;59073;51.994;4.448;2024-03-08T13:51:06;15.34;;;15.11;;
71290;SDS011;59073;51.994;4.448;2024-03-08T13:53:33;14.70;;;14.62;;
71290;SDS011;59073;51.994;4.448;2024-03-08T13:56:00;15.02;;;14.92;;
71290;SDS011;59073;51.994;4.448;2024-03-08T13:58:27;15.09;;;14.90;;
71290;SDS011;59073;51.994;4.448;2024-03-08T14:00:52;14.52;;;14.40;;
71290;SDS011;59073;51.994;4.448;2024-03-08T14:03:18;14.39;;;14.25;;
71290;SDS011;59073;51.994;4.448;2024-03-08T14:05:43;14.60;;;14.38;;
71290;SDS011;59073;51.994;4.448;2024-03-08T14:08:10;15.59;;;15.36;;
71290;SDS011;59073;51.994;4.448;2024-03-08T14:10:37;14.35;;;14.23;;
71290;SDS011;59073;51.994;4.448;2024-03-08T14:13:03;15.29;;;15.11;;
71290;SDS011;59073;51.994;4.448;2024-03-08T14:15:32;14.32;;;14.22;;
71290;SDS011;59073;51.994;4.448;2024-03-08T14:18:03;14.22;;;14.18;;
71290;SDS011;59073;51.994;4.448;2024-03-08T14:20:31;14.48;;;14.39;;
71290;SDS011;59073;51.994;4.448;2024-03-08T14:22:57;15.36;;;15.18;;
71290;SDS011;59073;51.994;4.448;2024-03-08T14:25:23;15.72;;;15.48;;
71290;SDS011;59073;51.994;4.448;2024-03-08T14:27:49;14.68;;;14.46;;
71290;SDS011;59073;51.994;4.448;2024-03-08T14:30:19;15.01;;;14.78;;
71290;SDS011;59073;51.994;4.448;2024-03-08T14:33:06;15.58;;;15.50;;
71290;SDS011;59073;51.994;4.448;2024-03-08T14:35:36;14.55;;;14.49;;
71290;SDS011;59073;51.994;4.448;2024-03-08T14:38:02;14.45;;;14.36;;
71290;SDS011;59073;51.994;4.448;2024-03-08T14:40:28;14.19;;;14.10;;
71290;SDS011;59073;51.994;4.448;2024-03-08T14:42:55;15.64;;;15.49;;